<?xml version="1.0" encoding="UTF-8" standalone="no" ?>
<gpx xmlns="http://www.topografix.com/GPX/1/1" xmlns:xsi="http://www.w3.org/2001/XMLSchema-instance" xsi:schemaLocation="http://www.topografix.com/GPX/1/1 http://www.topografix.com/GPX/1/1/gpx.xsd" version="1.1" creator="VisuGPX - https://www.visugpx.com">
  <metadata>
    <name>Cascade de Déroc</name>
    <desc><![CDATA[Cascade de Déroc, plateau de l'Aubrac]]></desc>
  </metadata>
  <trk>
    <name><![CDATA[Cascade De Deroc]]></name>
    <desc><![CDATA[]]></desc>
    <trkseg>
      <trkpt lat="44.64792" lon="3.06488">
        <ele>1220</ele>
        <time>2015-08-11T13:37:56.575Z</time>
      </trkpt>
      <trkpt lat="44.64792" lon="3.06488">
        <ele>1220</ele>
        <time>2015-08-11T13:39:42.097Z</time>
      </trkpt>
      <trkpt lat="44.64788" lon="3.065">
        <ele>1220.2</ele>
        <time>2015-08-11T13:39:43.064Z</time>
      </trkpt>
      <trkpt lat="44.64788" lon="3.065">
        <ele>1220.2</ele>
        <time>2015-08-11T13:39:43.109Z</time>
      </trkpt>
      <trkpt lat="44.64788" lon="3.06499">
        <ele>1220</ele>
        <time>2015-08-11T13:39:56.162Z</time>
      </trkpt>
      <trkpt lat="44.64791" lon="3.06491">
        <ele>1219.3</ele>
        <time>2015-08-11T13:39:57.061Z</time>
      </trkpt>
      <trkpt lat="44.64795" lon="3.06502">
        <ele>1217.9</ele>
        <time>2015-08-11T13:40:36.151Z</time>
      </trkpt>
      <trkpt lat="44.64795" lon="3.06503">
        <ele>1217.8</ele>
        <time>2015-08-11T13:40:37.365Z</time>
      </trkpt>
      <trkpt lat="44.64795" lon="3.06515">
        <ele>1215.6</ele>
        <time>2015-08-11T13:40:52.103Z</time>
      </trkpt>
      <trkpt lat="44.64795" lon="3.06516">
        <ele>1215.5</ele>
        <time>2015-08-11T13:40:53.062Z</time>
      </trkpt>
      <trkpt lat="44.64792" lon="3.06527">
        <ele>1214.8</ele>
        <time>2015-08-11T13:41:05.103Z</time>
      </trkpt>
      <trkpt lat="44.64792" lon="3.06529">
        <ele>1214.8</ele>
        <time>2015-08-11T13:41:06.076Z</time>
      </trkpt>
      <trkpt lat="44.6479" lon="3.0654">
        <ele>1214.3</ele>
        <time>2015-08-11T13:41:15.204Z</time>
      </trkpt>
      <trkpt lat="44.64789" lon="3.06541">
        <ele>1214.2</ele>
        <time>2015-08-11T13:41:16.061Z</time>
      </trkpt>
      <trkpt lat="44.64785" lon="3.06552">
        <ele>1213.5</ele>
        <time>2015-08-11T13:41:25.105Z</time>
      </trkpt>
      <trkpt lat="44.64784" lon="3.06553">
        <ele>1213.4</ele>
        <time>2015-08-11T13:41:26.260Z</time>
      </trkpt>
      <trkpt lat="44.64781" lon="3.06564">
        <ele>1212.3</ele>
        <time>2015-08-11T13:41:33.100Z</time>
      </trkpt>
      <trkpt lat="44.6478" lon="3.06566">
        <ele>1212.2</ele>
        <time>2015-08-11T13:41:34.067Z</time>
      </trkpt>
      <trkpt lat="44.64775" lon="3.06576">
        <ele>1211.3</ele>
        <time>2015-08-11T13:41:42.103Z</time>
      </trkpt>
      <trkpt lat="44.64774" lon="3.06577">
        <ele>1211.2</ele>
        <time>2015-08-11T13:41:43.063Z</time>
      </trkpt>
      <trkpt lat="44.64767" lon="3.06585">
        <ele>1210.8</ele>
        <time>2015-08-11T13:41:49.098Z</time>
      </trkpt>
      <trkpt lat="44.64766" lon="3.06586">
        <ele>1210.8</ele>
        <time>2015-08-11T13:41:50.058Z</time>
      </trkpt>
      <trkpt lat="44.64761" lon="3.06595">
        <ele>1210.5</ele>
        <time>2015-08-11T13:41:56.106Z</time>
      </trkpt>
      <trkpt lat="44.6476" lon="3.06596">
        <ele>1210.5</ele>
        <time>2015-08-11T13:41:57.063Z</time>
      </trkpt>
      <trkpt lat="44.64755" lon="3.06605">
        <ele>1210.5</ele>
        <time>2015-08-11T13:42:02.110Z</time>
      </trkpt>
      <trkpt lat="44.64754" lon="3.06606">
        <ele>1210.6</ele>
        <time>2015-08-11T13:42:03.062Z</time>
      </trkpt>
      <trkpt lat="44.64749" lon="3.06617">
        <ele>1210.6</ele>
        <time>2015-08-11T13:42:09.099Z</time>
      </trkpt>
      <trkpt lat="44.64748" lon="3.06619">
        <ele>1210.7</ele>
        <time>2015-08-11T13:42:10.061Z</time>
      </trkpt>
      <trkpt lat="44.64743" lon="3.06628">
        <ele>1210.5</ele>
        <time>2015-08-11T13:42:16.192Z</time>
      </trkpt>
      <trkpt lat="44.64743" lon="3.0663">
        <ele>1210.6</ele>
        <time>2015-08-11T13:42:17.058Z</time>
      </trkpt>
      <trkpt lat="44.64738" lon="3.06639">
        <ele>1211.2</ele>
        <time>2015-08-11T13:42:22.102Z</time>
      </trkpt>
      <trkpt lat="44.64737" lon="3.06641">
        <ele>1211.3</ele>
        <time>2015-08-11T13:42:23.057Z</time>
      </trkpt>
      <trkpt lat="44.64734" lon="3.06651">
        <ele>1211.4</ele>
        <time>2015-08-11T13:42:29.101Z</time>
      </trkpt>
      <trkpt lat="44.64733" lon="3.06653">
        <ele>1211.4</ele>
        <time>2015-08-11T13:42:30.064Z</time>
      </trkpt>
      <trkpt lat="44.64729" lon="3.06663">
        <ele>1211.6</ele>
        <time>2015-08-11T13:42:36.102Z</time>
      </trkpt>
      <trkpt lat="44.64729" lon="3.06664">
        <ele>1211.6</ele>
        <time>2015-08-11T13:42:37.066Z</time>
      </trkpt>
      <trkpt lat="44.64724" lon="3.06674">
        <ele>1211.7</ele>
        <time>2015-08-11T13:42:43.104Z</time>
      </trkpt>
      <trkpt lat="44.64724" lon="3.06675">
        <ele>1211.7</ele>
        <time>2015-08-11T13:42:44.072Z</time>
      </trkpt>
      <trkpt lat="44.64719" lon="3.06686">
        <ele>1212.1</ele>
        <time>2015-08-11T13:42:51.109Z</time>
      </trkpt>
      <trkpt lat="44.64718" lon="3.06686">
        <ele>1212.1</ele>
        <time>2015-08-11T13:42:52.061Z</time>
      </trkpt>
      <trkpt lat="44.64713" lon="3.06696">
        <ele>1211.9</ele>
        <time>2015-08-11T13:43:01.451Z</time>
      </trkpt>
      <trkpt lat="44.64713" lon="3.06697">
        <ele>1211.9</ele>
        <time>2015-08-11T13:43:02.056Z</time>
      </trkpt>
      <trkpt lat="44.64708" lon="3.06707">
        <ele>1211.8</ele>
        <time>2015-08-11T13:43:08.125Z</time>
      </trkpt>
      <trkpt lat="44.64708" lon="3.06708">
        <ele>1211.8</ele>
        <time>2015-08-11T13:43:09.061Z</time>
      </trkpt>
      <trkpt lat="44.64703" lon="3.06718">
        <ele>1211.7</ele>
        <time>2015-08-11T13:43:15.106Z</time>
      </trkpt>
      <trkpt lat="44.64703" lon="3.0672">
        <ele>1211.7</ele>
        <time>2015-08-11T13:43:16.057Z</time>
      </trkpt>
      <trkpt lat="44.64698" lon="3.0673">
        <ele>1212.2</ele>
        <time>2015-08-11T13:43:22.107Z</time>
      </trkpt>
      <trkpt lat="44.64698" lon="3.06732">
        <ele>1212.3</ele>
        <time>2015-08-11T13:43:23.071Z</time>
      </trkpt>
      <trkpt lat="44.64694" lon="3.06743">
        <ele>1212.9</ele>
        <time>2015-08-11T13:43:29.576Z</time>
      </trkpt>
      <trkpt lat="44.64694" lon="3.06744">
        <ele>1213</ele>
        <time>2015-08-11T13:43:30.076Z</time>
      </trkpt>
      <trkpt lat="44.64689" lon="3.06755">
        <ele>1213.2</ele>
        <time>2015-08-11T13:43:36.106Z</time>
      </trkpt>
      <trkpt lat="44.64689" lon="3.06757">
        <ele>1213.3</ele>
        <time>2015-08-11T13:43:37.065Z</time>
      </trkpt>
      <trkpt lat="44.64686" lon="3.06767">
        <ele>1213.6</ele>
        <time>2015-08-11T13:43:45.113Z</time>
      </trkpt>
      <trkpt lat="44.64685" lon="3.06768">
        <ele>1213.6</ele>
        <time>2015-08-11T13:43:46.058Z</time>
      </trkpt>
      <trkpt lat="44.64681" lon="3.06778">
        <ele>1213.9</ele>
        <time>2015-08-11T13:43:53.145Z</time>
      </trkpt>
      <trkpt lat="44.6468" lon="3.06779">
        <ele>1213.9</ele>
        <time>2015-08-11T13:43:54.074Z</time>
      </trkpt>
      <trkpt lat="44.64675" lon="3.06789">
        <ele>1214</ele>
        <time>2015-08-11T13:44:00.119Z</time>
      </trkpt>
      <trkpt lat="44.64675" lon="3.06791">
        <ele>1213.9</ele>
        <time>2015-08-11T13:44:01.062Z</time>
      </trkpt>
      <trkpt lat="44.64671" lon="3.06801">
        <ele>1213.4</ele>
        <time>2015-08-11T13:44:07.108Z</time>
      </trkpt>
      <trkpt lat="44.6467" lon="3.06803">
        <ele>1213.3</ele>
        <time>2015-08-11T13:44:08.060Z</time>
      </trkpt>
      <trkpt lat="44.64665" lon="3.06813">
        <ele>1213.1</ele>
        <time>2015-08-11T13:44:14.116Z</time>
      </trkpt>
      <trkpt lat="44.64665" lon="3.06815">
        <ele>1213.2</ele>
        <time>2015-08-11T13:44:15.064Z</time>
      </trkpt>
      <trkpt lat="44.6466" lon="3.06824">
        <ele>1213</ele>
        <time>2015-08-11T13:44:21.113Z</time>
      </trkpt>
      <trkpt lat="44.6466" lon="3.06826">
        <ele>1212.9</ele>
        <time>2015-08-11T13:44:22.062Z</time>
      </trkpt>
      <trkpt lat="44.64656" lon="3.06836">
        <ele>1213</ele>
        <time>2015-08-11T13:44:29.184Z</time>
      </trkpt>
      <trkpt lat="44.64656" lon="3.06838">
        <ele>1213</ele>
        <time>2015-08-11T13:44:30.065Z</time>
      </trkpt>
      <trkpt lat="44.64652" lon="3.06849">
        <ele>1213.1</ele>
        <time>2015-08-11T13:44:36.104Z</time>
      </trkpt>
      <trkpt lat="44.64652" lon="3.06851">
        <ele>1213.1</ele>
        <time>2015-08-11T13:44:37.069Z</time>
      </trkpt>
      <trkpt lat="44.64649" lon="3.06863">
        <ele>1213.3</ele>
        <time>2015-08-11T13:44:44.108Z</time>
      </trkpt>
      <trkpt lat="44.64649" lon="3.06866">
        <ele>1213.3</ele>
        <time>2015-08-11T13:44:45.059Z</time>
      </trkpt>
      <trkpt lat="44.64645" lon="3.06877">
        <ele>1213.4</ele>
        <time>2015-08-11T13:44:51.103Z</time>
      </trkpt>
      <trkpt lat="44.64645" lon="3.06878">
        <ele>1213.5</ele>
        <time>2015-08-11T13:44:52.079Z</time>
      </trkpt>
      <trkpt lat="44.64642" lon="3.06889">
        <ele>1213.9</ele>
        <time>2015-08-11T13:45:00.115Z</time>
      </trkpt>
      <trkpt lat="44.64641" lon="3.0689">
        <ele>1213.9</ele>
        <time>2015-08-11T13:45:01.116Z</time>
      </trkpt>
      <trkpt lat="44.64636" lon="3.06899">
        <ele>1214</ele>
        <time>2015-08-11T13:45:08.276Z</time>
      </trkpt>
      <trkpt lat="44.64635" lon="3.06901">
        <ele>1214</ele>
        <time>2015-08-11T13:45:09.060Z</time>
      </trkpt>
      <trkpt lat="44.64631" lon="3.06911">
        <ele>1214</ele>
        <time>2015-08-11T13:45:15.112Z</time>
      </trkpt>
      <trkpt lat="44.6463" lon="3.06912">
        <ele>1213.9</ele>
        <time>2015-08-11T13:45:16.079Z</time>
      </trkpt>
      <trkpt lat="44.64626" lon="3.06922">
        <ele>1213.7</ele>
        <time>2015-08-11T13:45:21.147Z</time>
      </trkpt>
      <trkpt lat="44.64626" lon="3.06925">
        <ele>1213.6</ele>
        <time>2015-08-11T13:45:22.079Z</time>
      </trkpt>
      <trkpt lat="44.64622" lon="3.06935">
        <ele>1213.2</ele>
        <time>2015-08-11T13:45:27.091Z</time>
      </trkpt>
      <trkpt lat="44.64622" lon="3.06937">
        <ele>1213.1</ele>
        <time>2015-08-11T13:45:28.058Z</time>
      </trkpt>
      <trkpt lat="44.64623" lon="3.06949">
        <ele>1212.2</ele>
        <time>2015-08-11T13:45:35.147Z</time>
      </trkpt>
      <trkpt lat="44.64624" lon="3.06951">
        <ele>1212.2</ele>
        <time>2015-08-11T13:45:36.079Z</time>
      </trkpt>
      <trkpt lat="44.64627" lon="3.06961">
        <ele>1211.2</ele>
        <time>2015-08-11T13:45:42.107Z</time>
      </trkpt>
      <trkpt lat="44.64628" lon="3.06963">
        <ele>1211</ele>
        <time>2015-08-11T13:45:43.076Z</time>
      </trkpt>
      <trkpt lat="44.64632" lon="3.06971">
        <ele>1209.7</ele>
        <time>2015-08-11T13:45:49.117Z</time>
      </trkpt>
      <trkpt lat="44.64633" lon="3.06973">
        <ele>1209.3</ele>
        <time>2015-08-11T13:45:50.062Z</time>
      </trkpt>
      <trkpt lat="44.64638" lon="3.06983">
        <ele>1207.8</ele>
        <time>2015-08-11T13:45:57.140Z</time>
      </trkpt>
      <trkpt lat="44.64638" lon="3.06985">
        <ele>1207.6</ele>
        <time>2015-08-11T13:45:58.086Z</time>
      </trkpt>
      <trkpt lat="44.64642" lon="3.06996">
        <ele>1206.5</ele>
        <time>2015-08-11T13:46:05.110Z</time>
      </trkpt>
      <trkpt lat="44.64642" lon="3.06997">
        <ele>1206.3</ele>
        <time>2015-08-11T13:46:06.124Z</time>
      </trkpt>
      <trkpt lat="44.64645" lon="3.07009">
        <ele>1205.7</ele>
        <time>2015-08-11T13:46:13.114Z</time>
      </trkpt>
      <trkpt lat="44.64644" lon="3.0701">
        <ele>1205.7</ele>
        <time>2015-08-11T13:46:14.058Z</time>
      </trkpt>
      <trkpt lat="44.64644" lon="3.07022">
        <ele>1205.9</ele>
        <time>2015-08-11T13:46:23.147Z</time>
      </trkpt>
      <trkpt lat="44.64645" lon="3.07024">
        <ele>1205.9</ele>
        <time>2015-08-11T13:46:24.056Z</time>
      </trkpt>
      <trkpt lat="44.64645" lon="3.07035">
        <ele>1206.9</ele>
        <time>2015-08-11T13:46:53.105Z</time>
      </trkpt>
      <trkpt lat="44.64642" lon="3.07043">
        <ele>1206.7</ele>
        <time>2015-08-11T13:46:54.073Z</time>
      </trkpt>
      <trkpt lat="44.64635" lon="3.0705">
        <ele>1206.5</ele>
        <time>2015-08-11T13:47:11.155Z</time>
      </trkpt>
      <trkpt lat="44.64635" lon="3.07051">
        <ele>1206.5</ele>
        <time>2015-08-11T13:47:12.074Z</time>
      </trkpt>
      <trkpt lat="44.6463" lon="3.07061">
        <ele>1205.4</ele>
        <time>2015-08-11T13:47:28.141Z</time>
      </trkpt>
      <trkpt lat="44.64629" lon="3.07062">
        <ele>1205.4</ele>
        <time>2015-08-11T13:47:29.073Z</time>
      </trkpt>
      <trkpt lat="44.64621" lon="3.07066">
        <ele>1205.2</ele>
        <time>2015-08-11T13:47:40.105Z</time>
      </trkpt>
      <trkpt lat="44.6462" lon="3.07068">
        <ele>1205.2</ele>
        <time>2015-08-11T13:47:41.060Z</time>
      </trkpt>
      <trkpt lat="44.64613" lon="3.07061">
        <ele>1203.5</ele>
        <time>2015-08-11T13:48:32.149Z</time>
      </trkpt>
      <trkpt lat="44.64612" lon="3.0706">
        <ele>1203.7</ele>
        <time>2015-08-11T13:48:33.057Z</time>
      </trkpt>
      <trkpt lat="44.6462" lon="3.07059">
        <ele>1205.2</ele>
        <time>2015-08-11T13:49:29.115Z</time>
      </trkpt>
      <trkpt lat="44.64621" lon="3.0706">
        <ele>1205.2</ele>
        <time>2015-08-11T13:49:30.075Z</time>
      </trkpt>
      <trkpt lat="44.64629" lon="3.07065">
        <ele>1205</ele>
        <time>2015-08-11T13:49:37.095Z</time>
      </trkpt>
      <trkpt lat="44.6463" lon="3.07066">
        <ele>1204.9</ele>
        <time>2015-08-11T13:49:38.057Z</time>
      </trkpt>
      <trkpt lat="44.64637" lon="3.07072">
        <ele>1204.8</ele>
        <time>2015-08-11T13:49:45.131Z</time>
      </trkpt>
      <trkpt lat="44.64638" lon="3.07073">
        <ele>1204.7</ele>
        <time>2015-08-11T13:49:46.073Z</time>
      </trkpt>
      <trkpt lat="44.6464" lon="3.07084">
        <ele>1204.4</ele>
        <time>2015-08-11T13:49:59.101Z</time>
      </trkpt>
      <trkpt lat="44.6464" lon="3.07085">
        <ele>1204.4</ele>
        <time>2015-08-11T13:50:00.066Z</time>
      </trkpt>
      <trkpt lat="44.64645" lon="3.07092">
        <ele>1203.6</ele>
        <time>2015-08-11T13:50:19.135Z</time>
      </trkpt>
      <trkpt lat="44.64648" lon="3.07098">
        <ele>1203</ele>
        <time>2015-08-11T13:50:20.110Z</time>
      </trkpt>
      <trkpt lat="44.64656" lon="3.07103">
        <ele>1202.3</ele>
        <time>2015-08-11T13:50:31.099Z</time>
      </trkpt>
      <trkpt lat="44.64657" lon="3.07104">
        <ele>1202.3</ele>
        <time>2015-08-11T13:50:32.097Z</time>
      </trkpt>
      <trkpt lat="44.6465" lon="3.07112">
        <ele>1198</ele>
        <time>2015-08-11T13:51:31.126Z</time>
      </trkpt>
      <trkpt lat="44.6465" lon="3.07113">
        <ele>1198</ele>
        <time>2015-08-11T13:51:32.071Z</time>
      </trkpt>
      <trkpt lat="44.64643" lon="3.07121">
        <ele>1196.5</ele>
        <time>2015-08-11T13:51:43.110Z</time>
      </trkpt>
      <trkpt lat="44.64643" lon="3.07122">
        <ele>1196.4</ele>
        <time>2015-08-11T13:51:44.061Z</time>
      </trkpt>
      <trkpt lat="44.64634" lon="3.0712">
        <ele>1195.8</ele>
        <time>2015-08-11T13:51:55.131Z</time>
      </trkpt>
      <trkpt lat="44.64632" lon="3.0712">
        <ele>1195.9</ele>
        <time>2015-08-11T13:51:56.075Z</time>
      </trkpt>
      <trkpt lat="44.64623" lon="3.07119">
        <ele>1195.1</ele>
        <time>2015-08-11T13:52:06.109Z</time>
      </trkpt>
      <trkpt lat="44.64622" lon="3.07119">
        <ele>1195</ele>
        <time>2015-08-11T13:52:07.061Z</time>
      </trkpt>
      <trkpt lat="44.64614" lon="3.07117">
        <ele>1194.1</ele>
        <time>2015-08-11T13:52:17.111Z</time>
      </trkpt>
      <trkpt lat="44.64613" lon="3.07115">
        <ele>1194</ele>
        <time>2015-08-11T13:52:18.066Z</time>
      </trkpt>
      <trkpt lat="44.64612" lon="3.07104">
        <ele>1193.1</ele>
        <time>2015-08-11T13:52:30.482Z</time>
      </trkpt>
      <trkpt lat="44.64612" lon="3.07102">
        <ele>1192.9</ele>
        <time>2015-08-11T13:52:32.195Z</time>
      </trkpt>
      <trkpt lat="44.64619" lon="3.07096">
        <ele>1190.4</ele>
        <time>2015-08-11T13:52:46.108Z</time>
      </trkpt>
      <trkpt lat="44.6462" lon="3.07096">
        <ele>1190</ele>
        <time>2015-08-11T13:52:47.063Z</time>
      </trkpt>
      <trkpt lat="44.64622" lon="3.07085">
        <ele>1188.3</ele>
        <time>2015-08-11T13:52:56.094Z</time>
      </trkpt>
      <trkpt lat="44.64621" lon="3.0708">
        <ele>1187.9</ele>
        <time>2015-08-11T13:52:57.060Z</time>
      </trkpt>
      <trkpt lat="44.64616" lon="3.07069">
        <ele>1186.9</ele>
        <time>2015-08-11T13:52:59.097Z</time>
      </trkpt>
      <trkpt lat="44.64616" lon="3.07069">
        <ele>1186.6</ele>
        <time>2015-08-11T13:53:00.060Z</time>
      </trkpt>
      <trkpt lat="44.64616" lon="3.07066">
        <ele>1185.8</ele>
        <time>2015-08-11T13:53:42.203Z</time>
      </trkpt>
      <trkpt lat="44.64611" lon="3.07054">
        <ele>1184.3</ele>
        <time>2015-08-11T13:53:43.064Z</time>
      </trkpt>
      <trkpt lat="44.64609" lon="3.0705">
        <ele>1184.3</ele>
        <time>2015-08-11T13:53:46.138Z</time>
      </trkpt>
      <trkpt lat="44.64617" lon="3.06989">
        <ele>1182.9</ele>
        <time>2015-08-11T13:54:28.092Z</time>
      </trkpt>
      <trkpt lat="44.64613" lon="3.06998">
        <ele>1182.8</ele>
        <time>2015-08-11T13:54:31.127Z</time>
      </trkpt>
      <trkpt lat="44.64611" lon="3.07002">
        <ele>1182.7</ele>
        <time>2015-08-11T13:54:32.076Z</time>
      </trkpt>
      <trkpt lat="44.64607" lon="3.07013">
        <ele>1182.4</ele>
        <time>2015-08-11T13:54:35.102Z</time>
      </trkpt>
      <trkpt lat="44.64605" lon="3.07014">
        <ele>1182.3</ele>
        <time>2015-08-11T13:54:36.058Z</time>
      </trkpt>
      <trkpt lat="44.64603" lon="3.07017">
        <ele>1182.4</ele>
        <time>2015-08-11T13:54:42.100Z</time>
      </trkpt>
      <trkpt lat="44.646" lon="3.07025">
        <ele>1182.2</ele>
        <time>2015-08-11T13:54:43.064Z</time>
      </trkpt>
      <trkpt lat="44.64596" lon="3.07036">
        <ele>1182.4</ele>
        <time>2015-08-11T13:54:49.096Z</time>
      </trkpt>
      <trkpt lat="44.64596" lon="3.07038">
        <ele>1182.4</ele>
        <time>2015-08-11T13:54:50.055Z</time>
      </trkpt>
      <trkpt lat="44.64594" lon="3.07046">
        <ele>1182.5</ele>
        <time>2015-08-11T13:54:53.106Z</time>
      </trkpt>
      <trkpt lat="44.64593" lon="3.07051">
        <ele>1182.5</ele>
        <time>2015-08-11T13:54:54.058Z</time>
      </trkpt>
      <trkpt lat="44.6459" lon="3.07063">
        <ele>1182.5</ele>
        <time>2015-08-11T13:55:00.117Z</time>
      </trkpt>
      <trkpt lat="44.6459" lon="3.07063">
        <ele>1182.5</ele>
        <time>2015-08-11T13:55:01.077Z</time>
      </trkpt>
      <trkpt lat="44.64585" lon="3.07072">
        <ele>1182.6</ele>
        <time>2015-08-11T13:55:06.154Z</time>
      </trkpt>
      <trkpt lat="44.64584" lon="3.07073">
        <ele>1182.6</ele>
        <time>2015-08-11T13:55:07.063Z</time>
      </trkpt>
      <trkpt lat="44.64582" lon="3.07062">
        <ele>1182.6</ele>
        <time>2015-08-11T13:55:20.102Z</time>
      </trkpt>
      <trkpt lat="44.64583" lon="3.07061">
        <ele>1182.6</ele>
        <time>2015-08-11T13:55:21.058Z</time>
      </trkpt>
      <trkpt lat="44.64586" lon="3.07072">
        <ele>1183.1</ele>
        <time>2015-08-11T13:55:37.173Z</time>
      </trkpt>
      <trkpt lat="44.64585" lon="3.07073">
        <ele>1183.1</ele>
        <time>2015-08-11T13:55:38.063Z</time>
      </trkpt>
      <trkpt lat="44.64582" lon="3.07062">
        <ele>1183.5</ele>
        <time>2015-08-11T13:56:06.111Z</time>
      </trkpt>
      <trkpt lat="44.64586" lon="3.07052">
        <ele>1183.4</ele>
        <time>2015-08-11T13:56:07.088Z</time>
      </trkpt>
      <trkpt lat="44.64586" lon="3.07051">
        <ele>1183.4</ele>
        <time>2015-08-11T13:56:16.105Z</time>
      </trkpt>
      <trkpt lat="44.6459" lon="3.0704">
        <ele>1183.3</ele>
        <time>2015-08-11T13:56:17.054Z</time>
      </trkpt>
      <trkpt lat="44.64591" lon="3.0703">
        <ele>1183.2</ele>
        <time>2015-08-11T13:56:19.113Z</time>
      </trkpt>
      <trkpt lat="44.64596" lon="3.07021">
        <ele>1182.8</ele>
        <time>2015-08-11T13:56:27.062Z</time>
      </trkpt>
      <trkpt lat="44.64596" lon="3.0703">
        <ele>1182.4</ele>
        <time>2015-08-11T13:56:30.095Z</time>
      </trkpt>
      <trkpt lat="44.64596" lon="3.07036">
        <ele>1182.2</ele>
        <time>2015-08-11T13:56:31.079Z</time>
      </trkpt>
      <trkpt lat="44.64596" lon="3.07047">
        <ele>1181.6</ele>
        <time>2015-08-11T13:56:36.127Z</time>
      </trkpt>
      <trkpt lat="44.64595" lon="3.07049">
        <ele>1181.5</ele>
        <time>2015-08-11T13:56:37.062Z</time>
      </trkpt>
      <trkpt lat="44.64593" lon="3.07058">
        <ele>1181.3</ele>
        <time>2015-08-11T13:56:47.128Z</time>
      </trkpt>
      <trkpt lat="44.64591" lon="3.07065">
        <ele>1181.1</ele>
        <time>2015-08-11T13:56:48.086Z</time>
      </trkpt>
      <trkpt lat="44.64592" lon="3.07077">
        <ele>1180.6</ele>
        <time>2015-08-11T13:57:06.116Z</time>
      </trkpt>
      <trkpt lat="44.64593" lon="3.07078">
        <ele>1180.6</ele>
        <time>2015-08-11T13:57:07.060Z</time>
      </trkpt>
      <trkpt lat="44.64588" lon="3.0707">
        <ele>1180.1</ele>
        <time>2015-08-11T13:57:22.104Z</time>
      </trkpt>
      <trkpt lat="44.64587" lon="3.07065">
        <ele>1180</ele>
        <time>2015-08-11T13:57:23.061Z</time>
      </trkpt>
      <trkpt lat="44.64593" lon="3.0706">
        <ele>1179.3</ele>
        <time>2015-08-11T13:58:04.100Z</time>
      </trkpt>
      <trkpt lat="44.64595" lon="3.07059">
        <ele>1179.3</ele>
        <time>2015-08-11T13:58:05.053Z</time>
      </trkpt>
      <trkpt lat="44.64602" lon="3.07052">
        <ele>1178.9</ele>
        <time>2015-08-11T13:58:14.140Z</time>
      </trkpt>
      <trkpt lat="44.64603" lon="3.07052">
        <ele>1178.9</ele>
        <time>2015-08-11T13:58:15.075Z</time>
      </trkpt>
      <trkpt lat="44.64595" lon="3.07051">
        <ele>1178.2</ele>
        <time>2015-08-11T13:58:37.108Z</time>
      </trkpt>
      <trkpt lat="44.64593" lon="3.07048">
        <ele>1178.2</ele>
        <time>2015-08-11T13:58:38.054Z</time>
      </trkpt>
      <trkpt lat="44.64586" lon="3.07045">
        <ele>1178</ele>
        <time>2015-08-11T13:58:53.103Z</time>
      </trkpt>
      <trkpt lat="44.64582" lon="3.07046">
        <ele>1177.8</ele>
        <time>2015-08-11T13:58:54.069Z</time>
      </trkpt>
      <trkpt lat="44.64577" lon="3.07052">
        <ele>1178.1</ele>
        <time>2015-08-11T13:59:31.088Z</time>
      </trkpt>
      <trkpt lat="44.64567" lon="3.0705">
        <ele>1178.7</ele>
        <time>2015-08-11T13:59:32.057Z</time>
      </trkpt>
      <trkpt lat="44.64559" lon="3.07045">
        <ele>1181.9</ele>
        <time>2015-08-11T13:59:57.133Z</time>
      </trkpt>
      <trkpt lat="44.64558" lon="3.07046">
        <ele>1182</ele>
        <time>2015-08-11T13:59:58.075Z</time>
      </trkpt>
      <trkpt lat="44.6455" lon="3.07049">
        <ele>1183.4</ele>
        <time>2015-08-11T14:00:16.874Z</time>
      </trkpt>
      <trkpt lat="44.6455" lon="3.07051">
        <ele>1183.6</ele>
        <time>2015-08-11T14:00:17.846Z</time>
      </trkpt>
      <trkpt lat="44.64542" lon="3.0705">
        <ele>1184.4</ele>
        <time>2015-08-11T14:00:31.884Z</time>
      </trkpt>
      <trkpt lat="44.6454" lon="3.0705">
        <ele>1184.5</ele>
        <time>2015-08-11T14:00:32.833Z</time>
      </trkpt>
      <trkpt lat="44.64535" lon="3.07041">
        <ele>1184.5</ele>
        <time>2015-08-11T14:00:49.877Z</time>
      </trkpt>
      <trkpt lat="44.64534" lon="3.0704">
        <ele>1184.6</ele>
        <time>2015-08-11T14:00:50.840Z</time>
      </trkpt>
      <trkpt lat="44.64526" lon="3.07034">
        <ele>1184.7</ele>
        <time>2015-08-11T14:01:01.880Z</time>
      </trkpt>
      <trkpt lat="44.64525" lon="3.07034">
        <ele>1184.7</ele>
        <time>2015-08-11T14:01:02.830Z</time>
      </trkpt>
      <trkpt lat="44.64525" lon="3.0703">
        <ele>1185.1</ele>
        <time>2015-08-11T14:01:23.901Z</time>
      </trkpt>
      <trkpt lat="44.64525" lon="3.07017">
        <ele>1185.8</ele>
        <time>2015-08-11T14:01:24.833Z</time>
      </trkpt>
      <trkpt lat="44.6452" lon="3.07006">
        <ele>1192.6</ele>
        <time>2015-08-11T14:01:43.881Z</time>
      </trkpt>
      <trkpt lat="44.64519" lon="3.07006">
        <ele>1192.9</ele>
        <time>2015-08-11T14:01:44.829Z</time>
      </trkpt>
      <trkpt lat="44.64526" lon="3.07015">
        <ele>1198.1</ele>
        <time>2015-08-11T14:02:42.871Z</time>
      </trkpt>
      <trkpt lat="44.64526" lon="3.07015">
        <ele>1198.3</ele>
        <time>2015-08-11T14:02:43.836Z</time>
      </trkpt>
      <trkpt lat="44.64534" lon="3.07015">
        <ele>1199.6</ele>
        <time>2015-08-11T14:02:49.879Z</time>
      </trkpt>
      <trkpt lat="44.64536" lon="3.07015">
        <ele>1200</ele>
        <time>2015-08-11T14:02:50.835Z</time>
      </trkpt>
      <trkpt lat="44.64544" lon="3.07016">
        <ele>1200.9</ele>
        <time>2015-08-11T14:02:56.876Z</time>
      </trkpt>
      <trkpt lat="44.64545" lon="3.07016">
        <ele>1201</ele>
        <time>2015-08-11T14:02:57.835Z</time>
      </trkpt>
      <trkpt lat="44.64553" lon="3.07017">
        <ele>1201.4</ele>
        <time>2015-08-11T14:03:03.911Z</time>
      </trkpt>
      <trkpt lat="44.64555" lon="3.07017">
        <ele>1201.5</ele>
        <time>2015-08-11T14:03:04.831Z</time>
      </trkpt>
      <trkpt lat="44.64563" lon="3.0702">
        <ele>1202.3</ele>
        <time>2015-08-11T14:03:09.885Z</time>
      </trkpt>
      <trkpt lat="44.64564" lon="3.0702">
        <ele>1202.4</ele>
        <time>2015-08-11T14:03:10.833Z</time>
      </trkpt>
      <trkpt lat="44.64572" lon="3.07022">
        <ele>1202.6</ele>
        <time>2015-08-11T14:03:16.874Z</time>
      </trkpt>
      <trkpt lat="44.64574" lon="3.07023">
        <ele>1202.2</ele>
        <time>2015-08-11T14:03:17.830Z</time>
      </trkpt>
      <trkpt lat="44.64581" lon="3.07028">
        <ele>1202.4</ele>
        <time>2015-08-11T14:03:24.903Z</time>
      </trkpt>
      <trkpt lat="44.64582" lon="3.07029">
        <ele>1202.4</ele>
        <time>2015-08-11T14:03:25.834Z</time>
      </trkpt>
      <trkpt lat="44.64587" lon="3.07039">
        <ele>1205</ele>
        <time>2015-08-11T14:03:37.867Z</time>
      </trkpt>
      <trkpt lat="44.64587" lon="3.0704">
        <ele>1205.3</ele>
        <time>2015-08-11T14:03:38.830Z</time>
      </trkpt>
      <trkpt lat="44.64596" lon="3.07038">
        <ele>1205.2</ele>
        <time>2015-08-11T14:03:54.869Z</time>
      </trkpt>
      <trkpt lat="44.64597" lon="3.07038">
        <ele>1205.1</ele>
        <time>2015-08-11T14:03:55.834Z</time>
      </trkpt>
      <trkpt lat="44.64605" lon="3.07036">
        <ele>1204.3</ele>
        <time>2015-08-11T14:04:04.933Z</time>
      </trkpt>
      <trkpt lat="44.64606" lon="3.07036">
        <ele>1204.4</ele>
        <time>2015-08-11T14:04:05.835Z</time>
      </trkpt>
      <trkpt lat="44.64613" lon="3.07043">
        <ele>1203.6</ele>
        <time>2015-08-11T14:05:04.920Z</time>
      </trkpt>
      <trkpt lat="44.64613" lon="3.07044">
        <ele>1203.6</ele>
        <time>2015-08-11T14:05:05.833Z</time>
      </trkpt>
      <trkpt lat="44.64609" lon="3.07056">
        <ele>1202.7</ele>
        <time>2015-08-11T14:06:56.926Z</time>
      </trkpt>
      <trkpt lat="44.6461" lon="3.07056">
        <ele>1202.7</ele>
        <time>2015-08-11T14:06:57.847Z</time>
      </trkpt>
      <trkpt lat="44.64614" lon="3.07066">
        <ele>1202.7</ele>
        <time>2015-08-11T14:07:08.935Z</time>
      </trkpt>
      <trkpt lat="44.64614" lon="3.07068">
        <ele>1202.7</ele>
        <time>2015-08-11T14:07:09.832Z</time>
      </trkpt>
      <trkpt lat="44.64616" lon="3.07079">
        <ele>1202.8</ele>
        <time>2015-08-11T14:07:18.863Z</time>
      </trkpt>
      <trkpt lat="44.64616" lon="3.07081">
        <ele>1202.9</ele>
        <time>2015-08-11T14:07:19.848Z</time>
      </trkpt>
      <trkpt lat="44.64612" lon="3.07092">
        <ele>1202.7</ele>
        <time>2015-08-11T14:08:24.888Z</time>
      </trkpt>
      <trkpt lat="44.6461" lon="3.07096">
        <ele>1202.3</ele>
        <time>2015-08-11T14:08:25.836Z</time>
      </trkpt>
      <trkpt lat="44.64618" lon="3.0709">
        <ele>1202.2</ele>
        <time>2015-08-11T14:08:32.904Z</time>
      </trkpt>
      <trkpt lat="44.64618" lon="3.07089">
        <ele>1202.1</ele>
        <time>2015-08-11T14:08:33.833Z</time>
      </trkpt>
      <trkpt lat="44.64623" lon="3.07079">
        <ele>1201.6</ele>
        <time>2015-08-11T14:08:41.257Z</time>
      </trkpt>
      <trkpt lat="44.64624" lon="3.07077">
        <ele>1201.6</ele>
        <time>2015-08-11T14:08:41.831Z</time>
      </trkpt>
      <trkpt lat="44.6463" lon="3.07068">
        <ele>1201.1</ele>
        <time>2015-08-11T14:08:49.884Z</time>
      </trkpt>
      <trkpt lat="44.64631" lon="3.07067">
        <ele>1201</ele>
        <time>2015-08-11T14:08:50.850Z</time>
      </trkpt>
      <trkpt lat="44.64634" lon="3.07055">
        <ele>1201.1</ele>
        <time>2015-08-11T14:09:21.914Z</time>
      </trkpt>
      <trkpt lat="44.64637" lon="3.07054">
        <ele>1201.9</ele>
        <time>2015-08-11T14:09:22.847Z</time>
      </trkpt>
      <trkpt lat="44.64645" lon="3.07047">
        <ele>1202.6</ele>
        <time>2015-08-11T14:09:41.871Z</time>
      </trkpt>
      <trkpt lat="44.64645" lon="3.07048">
        <ele>1202.7</ele>
        <time>2015-08-11T14:09:42.833Z</time>
      </trkpt>
      <trkpt lat="44.64652" lon="3.0704">
        <ele>1202.7</ele>
        <time>2015-08-11T14:09:55.877Z</time>
      </trkpt>
      <trkpt lat="44.64653" lon="3.07039">
        <ele>1202.7</ele>
        <time>2015-08-11T14:09:56.850Z</time>
      </trkpt>
      <trkpt lat="44.64655" lon="3.07027">
        <ele>1203</ele>
        <time>2015-08-11T14:10:04.878Z</time>
      </trkpt>
      <trkpt lat="44.64656" lon="3.07026">
        <ele>1203</ele>
        <time>2015-08-11T14:10:05.838Z</time>
      </trkpt>
      <trkpt lat="44.64655" lon="3.07014">
        <ele>1203.1</ele>
        <time>2015-08-11T14:10:13.878Z</time>
      </trkpt>
      <trkpt lat="44.64655" lon="3.07012">
        <ele>1203.2</ele>
        <time>2015-08-11T14:10:14.832Z</time>
      </trkpt>
      <trkpt lat="44.64653" lon="3.07001">
        <ele>1203.3</ele>
        <time>2015-08-11T14:10:24.070Z</time>
      </trkpt>
      <trkpt lat="44.64652" lon="3.06999">
        <ele>1203.4</ele>
        <time>2015-08-11T14:10:24.832Z</time>
      </trkpt>
      <trkpt lat="44.64649" lon="3.06988">
        <ele>1203.6</ele>
        <time>2015-08-11T14:10:32.868Z</time>
      </trkpt>
      <trkpt lat="44.64649" lon="3.06986">
        <ele>1203.6</ele>
        <time>2015-08-11T14:10:33.831Z</time>
      </trkpt>
      <trkpt lat="44.64642" lon="3.06978">
        <ele>1203.7</ele>
        <time>2015-08-11T14:10:40.911Z</time>
      </trkpt>
      <trkpt lat="44.64642" lon="3.06977">
        <ele>1203.7</ele>
        <time>2015-08-11T14:10:41.832Z</time>
      </trkpt>
      <trkpt lat="44.64635" lon="3.06969">
        <ele>1203.2</ele>
        <time>2015-08-11T14:10:50.874Z</time>
      </trkpt>
      <trkpt lat="44.64635" lon="3.06967">
        <ele>1203.2</ele>
        <time>2015-08-11T14:10:51.838Z</time>
      </trkpt>
      <trkpt lat="44.6463" lon="3.06958">
        <ele>1203.1</ele>
        <time>2015-08-11T14:10:57.896Z</time>
      </trkpt>
      <trkpt lat="44.64629" lon="3.06957">
        <ele>1203.1</ele>
        <time>2015-08-11T14:10:59.162Z</time>
      </trkpt>
      <trkpt lat="44.64629" lon="3.06945">
        <ele>1203</ele>
        <time>2015-08-11T14:11:08.875Z</time>
      </trkpt>
      <trkpt lat="44.64629" lon="3.06943">
        <ele>1203</ele>
        <time>2015-08-11T14:11:09.880Z</time>
      </trkpt>
      <trkpt lat="44.64632" lon="3.06932">
        <ele>1203.4</ele>
        <time>2015-08-11T14:11:17.915Z</time>
      </trkpt>
      <trkpt lat="44.64632" lon="3.0693">
        <ele>1203.6</ele>
        <time>2015-08-11T14:11:18.848Z</time>
      </trkpt>
      <trkpt lat="44.64637" lon="3.0692">
        <ele>1204.3</ele>
        <time>2015-08-11T14:11:26.875Z</time>
      </trkpt>
      <trkpt lat="44.64638" lon="3.06918">
        <ele>1204.3</ele>
        <time>2015-08-11T14:11:27.831Z</time>
      </trkpt>
      <trkpt lat="44.64643" lon="3.06908">
        <ele>1204</ele>
        <time>2015-08-11T14:11:35.894Z</time>
      </trkpt>
      <trkpt lat="44.64644" lon="3.06906">
        <ele>1204</ele>
        <time>2015-08-11T14:11:36.832Z</time>
      </trkpt>
      <trkpt lat="44.64645" lon="3.06896">
        <ele>1204.5</ele>
        <time>2015-08-11T14:11:42.874Z</time>
      </trkpt>
      <trkpt lat="44.64646" lon="3.06894">
        <ele>1204.4</ele>
        <time>2015-08-11T14:11:43.838Z</time>
      </trkpt>
      <trkpt lat="44.64649" lon="3.06883">
        <ele>1205</ele>
        <time>2015-08-11T14:11:50.874Z</time>
      </trkpt>
      <trkpt lat="44.6465" lon="3.06882">
        <ele>1205.1</ele>
        <time>2015-08-11T14:11:51.850Z</time>
      </trkpt>
      <trkpt lat="44.64653" lon="3.06872">
        <ele>1205.3</ele>
        <time>2015-08-11T14:11:57.944Z</time>
      </trkpt>
      <trkpt lat="44.64654" lon="3.0687">
        <ele>1205.4</ele>
        <time>2015-08-11T14:11:58.833Z</time>
      </trkpt>
      <trkpt lat="44.64657" lon="3.06858">
        <ele>1205.8</ele>
        <time>2015-08-11T14:12:04.874Z</time>
      </trkpt>
      <trkpt lat="44.64657" lon="3.06856">
        <ele>1205.9</ele>
        <time>2015-08-11T14:12:05.838Z</time>
      </trkpt>
      <trkpt lat="44.6466" lon="3.06845">
        <ele>1206.3</ele>
        <time>2015-08-11T14:12:11.875Z</time>
      </trkpt>
      <trkpt lat="44.64661" lon="3.06844">
        <ele>1206.3</ele>
        <time>2015-08-11T14:12:12.836Z</time>
      </trkpt>
      <trkpt lat="44.64665" lon="3.06835">
        <ele>1206.8</ele>
        <time>2015-08-11T14:12:18.862Z</time>
      </trkpt>
      <trkpt lat="44.64666" lon="3.06833">
        <ele>1206.9</ele>
        <time>2015-08-11T14:12:19.856Z</time>
      </trkpt>
      <trkpt lat="44.6467" lon="3.06823">
        <ele>1207.5</ele>
        <time>2015-08-11T14:12:25.883Z</time>
      </trkpt>
      <trkpt lat="44.64671" lon="3.06821">
        <ele>1207.6</ele>
        <time>2015-08-11T14:12:26.833Z</time>
      </trkpt>
      <trkpt lat="44.64675" lon="3.06811">
        <ele>1208.4</ele>
        <time>2015-08-11T14:12:32.874Z</time>
      </trkpt>
      <trkpt lat="44.64676" lon="3.06809">
        <ele>1208.5</ele>
        <time>2015-08-11T14:12:33.835Z</time>
      </trkpt>
      <trkpt lat="44.6468" lon="3.068">
        <ele>1208.8</ele>
        <time>2015-08-11T14:12:40.914Z</time>
      </trkpt>
      <trkpt lat="44.64681" lon="3.06799">
        <ele>1208.6</ele>
        <time>2015-08-11T14:12:41.832Z</time>
      </trkpt>
      <trkpt lat="44.64685" lon="3.06788">
        <ele>1207.8</ele>
        <time>2015-08-11T14:12:49.873Z</time>
      </trkpt>
      <trkpt lat="44.64685" lon="3.06787">
        <ele>1207.7</ele>
        <time>2015-08-11T14:12:50.834Z</time>
      </trkpt>
      <trkpt lat="44.64689" lon="3.06777">
        <ele>1207.2</ele>
        <time>2015-08-11T14:12:57.876Z</time>
      </trkpt>
      <trkpt lat="44.6469" lon="3.06775">
        <ele>1207.2</ele>
        <time>2015-08-11T14:12:58.848Z</time>
      </trkpt>
      <trkpt lat="44.64694" lon="3.06766">
        <ele>1206.8</ele>
        <time>2015-08-11T14:13:05.876Z</time>
      </trkpt>
      <trkpt lat="44.64695" lon="3.06764">
        <ele>1206.7</ele>
        <time>2015-08-11T14:13:06.837Z</time>
      </trkpt>
      <trkpt lat="44.64698" lon="3.06754">
        <ele>1206.6</ele>
        <time>2015-08-11T14:13:12.875Z</time>
      </trkpt>
      <trkpt lat="44.64698" lon="3.06752">
        <ele>1206.5</ele>
        <time>2015-08-11T14:13:13.839Z</time>
      </trkpt>
      <trkpt lat="44.64703" lon="3.06744">
        <ele>1206.5</ele>
        <time>2015-08-11T14:13:19.898Z</time>
      </trkpt>
      <trkpt lat="44.64704" lon="3.06742">
        <ele>1206.6</ele>
        <time>2015-08-11T14:13:20.833Z</time>
      </trkpt>
      <trkpt lat="44.64708" lon="3.06732">
        <ele>1206.3</ele>
        <time>2015-08-11T14:13:27.888Z</time>
      </trkpt>
      <trkpt lat="44.64709" lon="3.06731">
        <ele>1206.4</ele>
        <time>2015-08-11T14:13:28.834Z</time>
      </trkpt>
      <trkpt lat="44.64714" lon="3.0672">
        <ele>1206.3</ele>
        <time>2015-08-11T14:13:35.877Z</time>
      </trkpt>
      <trkpt lat="44.64714" lon="3.06718">
        <ele>1206.3</ele>
        <time>2015-08-11T14:13:36.850Z</time>
      </trkpt>
      <trkpt lat="44.64718" lon="3.06708">
        <ele>1206.6</ele>
        <time>2015-08-11T14:13:42.895Z</time>
      </trkpt>
      <trkpt lat="44.64719" lon="3.06707">
        <ele>1206.5</ele>
        <time>2015-08-11T14:13:43.837Z</time>
      </trkpt>
      <trkpt lat="44.64723" lon="3.06696">
        <ele>1206.7</ele>
        <time>2015-08-11T14:13:49.883Z</time>
      </trkpt>
      <trkpt lat="44.64723" lon="3.06695">
        <ele>1206.8</ele>
        <time>2015-08-11T14:13:50.833Z</time>
      </trkpt>
      <trkpt lat="44.64728" lon="3.06686">
        <ele>1206.4</ele>
        <time>2015-08-11T14:13:56.943Z</time>
      </trkpt>
      <trkpt lat="44.64729" lon="3.06685">
        <ele>1206.5</ele>
        <time>2015-08-11T14:13:57.838Z</time>
      </trkpt>
      <trkpt lat="44.64734" lon="3.06675">
        <ele>1206.6</ele>
        <time>2015-08-11T14:14:03.890Z</time>
      </trkpt>
      <trkpt lat="44.64734" lon="3.06674">
        <ele>1206.5</ele>
        <time>2015-08-11T14:14:04.839Z</time>
      </trkpt>
      <trkpt lat="44.64739" lon="3.06664">
        <ele>1206.1</ele>
        <time>2015-08-11T14:14:12.172Z</time>
      </trkpt>
      <trkpt lat="44.6474" lon="3.06662">
        <ele>1206.1</ele>
        <time>2015-08-11T14:14:12.834Z</time>
      </trkpt>
      <trkpt lat="44.64745" lon="3.06652">
        <ele>1205.8</ele>
        <time>2015-08-11T14:14:18.888Z</time>
      </trkpt>
      <trkpt lat="44.64745" lon="3.0665">
        <ele>1205.9</ele>
        <time>2015-08-11T14:14:19.838Z</time>
      </trkpt>
      <trkpt lat="44.6475" lon="3.06639">
        <ele>1206</ele>
        <time>2015-08-11T14:14:26.877Z</time>
      </trkpt>
      <trkpt lat="44.64751" lon="3.06638">
        <ele>1206.1</ele>
        <time>2015-08-11T14:14:27.857Z</time>
      </trkpt>
      <trkpt lat="44.64755" lon="3.06627">
        <ele>1206.6</ele>
        <time>2015-08-11T14:14:34.892Z</time>
      </trkpt>
      <trkpt lat="44.64756" lon="3.06625">
        <ele>1206.6</ele>
        <time>2015-08-11T14:14:35.835Z</time>
      </trkpt>
      <trkpt lat="44.64761" lon="3.06615">
        <ele>1206.6</ele>
        <time>2015-08-11T14:14:42.955Z</time>
      </trkpt>
      <trkpt lat="44.64761" lon="3.06614">
        <ele>1206.7</ele>
        <time>2015-08-11T14:14:43.834Z</time>
      </trkpt>
      <trkpt lat="44.64767" lon="3.06606">
        <ele>1207.5</ele>
        <time>2015-08-11T14:14:50.886Z</time>
      </trkpt>
      <trkpt lat="44.64768" lon="3.06605">
        <ele>1207.6</ele>
        <time>2015-08-11T14:14:51.837Z</time>
      </trkpt>
      <trkpt lat="44.64773" lon="3.06597">
        <ele>1207.4</ele>
        <time>2015-08-11T14:14:58.877Z</time>
      </trkpt>
      <trkpt lat="44.64774" lon="3.06596">
        <ele>1207.3</ele>
        <time>2015-08-11T14:14:59.831Z</time>
      </trkpt>
      <trkpt lat="44.64779" lon="3.06587">
        <ele>1206.9</ele>
        <time>2015-08-11T14:15:06.889Z</time>
      </trkpt>
      <trkpt lat="44.6478" lon="3.06586">
        <ele>1206.7</ele>
        <time>2015-08-11T14:15:07.838Z</time>
      </trkpt>
      <trkpt lat="44.64784" lon="3.06575">
        <ele>1206.2</ele>
        <time>2015-08-11T14:15:15.897Z</time>
      </trkpt>
      <trkpt lat="44.64785" lon="3.06573">
        <ele>1206.1</ele>
        <time>2015-08-11T14:15:16.834Z</time>
      </trkpt>
      <trkpt lat="44.64789" lon="3.06566">
        <ele>1205.5</ele>
        <time>2015-08-11T14:15:23.100Z</time>
      </trkpt>
    </trkseg>
  </trk>
</gpx>